createdAt,value
2023-07-10T00:00:43.699Z,0.00
2023-07-10T00:01:43.676Z,0.00
2023-07-10T00:02:43.664Z,0.00
2023-07-10T00:03:43.697Z,0.00
2023-07-10T00:04:43.591Z,0.00
2023-07-10T00:05:43.576Z,0.00
2023-07-10T00:06:43.541Z,0.00
2023-07-10T00:07:43.557Z,0.00
2023-07-10T00:08:45.136Z,0.00
2023-07-10T00:09:43.451Z,0.00
2023-07-10T00:10:43.428Z,0.00
2023-07-10T00:11:43.400Z,0.00
2023-07-10T00:12:43.512Z,0.00
2023-07-10T00:13:43.378Z,0.00
2023-07-10T00:14:43.419Z,0.00
2023-07-10T00:15:43.286Z,0.00
2023-07-10T00:16:43.306Z,0.00
2023-07-10T00:17:43.264Z,0.00
2023-07-10T00:18:43.248Z,0.00
2023-07-10T00:19:43.195Z,0.00
2023-07-10T00:20:43.244Z,0.00
2023-07-10T00:21:43.184Z,0.00
2023-07-10T00:22:43.164Z,0.00
2023-07-10T00:23:43.133Z,0.00
2023-07-10T00:24:43.063Z,0.00
2023-07-10T00:25:43.127Z,0.00
2023-07-10T00:26:43.047Z,0.00
2023-07-10T00:27:43.007Z,0.00
2023-07-10T00:28:42.970Z,0.00
2023-07-10T00:29:42.961Z,0.00
2023-07-10T00:30:42.952Z,0.00
2023-07-10T00:31:42.986Z,0.00
2023-07-10T00:32:42.898Z,0.00
2023-07-10T00:33:42.851Z,0.00
2023-07-10T00:34:42.869Z,0.00
2023-07-10T00:35:42.789Z,0.00
2023-07-10T00:36:42.828Z,0.00
2023-07-10T00:37:42.755Z,0.00
2023-07-10T00:38:42.729Z,0.00
2023-07-10T00:39:42.764Z,0.00
2023-07-10T00:40:42.671Z,0.00
2023-07-10T00:41:42.631Z,0.00
2023-07-10T00:42:42.620Z,0.00
2023-07-10T00:43:42.587Z,0.00
2023-07-10T00:44:42.623Z,0.00
2023-07-10T00:45:42.535Z,0.00
2023-07-10T00:46:42.560Z,0.00
2023-07-10T00:47:42.601Z,0.00
2023-07-10T00:48:42.442Z,0.00
2023-07-10T00:49:42.486Z,0.00
2023-07-10T00:50:42.420Z,0.00
2023-07-10T00:51:42.387Z,0.00
2023-07-10T00:52:42.363Z,0.00
2023-07-10T00:53:42.324Z,0.00
2023-07-10T00:54:42.366Z,0.00
2023-07-10T00:55:42.275Z,0.00
2023-07-10T00:56:42.248Z,0.00
2023-07-10T00:57:42.224Z,0.00
2023-07-10T00:58:42.192Z,0.00
2023-07-10T00:59:42.182Z,0.00
2023-07-10T01:00:42.241Z,0.00
2023-07-10T01:01:42.141Z,0.00
2023-07-10T01:02:42.228Z,0.00
2023-07-10T01:03:42.070Z,0.00
2023-07-10T01:04:42.131Z,0.00
2023-07-10T01:05:42.055Z,0.00
2023-07-10T01:06:42.008Z,0.00
2023-07-10T01:07:42.059Z,0.00
2023-07-10T01:08:41.989Z,0.00
2023-07-10T01:09:41.948Z,0.00
2023-07-10T01:10:41.986Z,0.00
2023-07-10T01:11:41.898Z,0.00
2023-07-10T01:12:41.838Z,0.00
2023-07-10T01:13:41.882Z,0.00
2023-07-10T01:14:41.806Z,0.00
2023-07-10T01:15:41.856Z,0.00
2023-07-10T01:16:41.832Z,0.00
2023-07-10T01:17:41.811Z,0.00
2023-07-10T01:18:41.714Z,0.00
2023-07-10T01:19:41.667Z,0.00
2023-07-10T01:20:41.653Z,0.00
2023-07-10T01:21:41.691Z,0.00
2023-07-10T01:22:41.577Z,0.00
2023-07-10T01:23:41.564Z,0.00
2023-07-10T01:24:41.562Z,0.00
2023-07-10T01:25:41.533Z,0.00
2023-07-10T01:26:41.541Z,0.00
2023-07-10T01:27:41.465Z,0.00
2023-07-10T01:28:41.437Z,0.00
2023-07-10T01:29:41.467Z,0.00
2023-07-10T01:30:41.416Z,0.00
2023-07-10T01:31:41.373Z,0.00
2023-07-10T01:32:41.430Z,0.00
2023-07-10T01:33:41.321Z,0.00
2023-07-10T01:34:41.276Z,0.00
2023-07-10T01:35:41.268Z,0.00
2023-07-10T01:36:41.235Z,0.00
2023-07-10T01:37:41.274Z,0.00
2023-07-10T01:38:41.168Z,0.00
2023-07-10T01:39:41.214Z,0.00
2023-07-10T01:40:41.121Z,0.00
2023-07-10T01:41:41.211Z,0.00
2023-07-10T01:42:41.073Z,0.00
2023-07-10T01:43:41.108Z,0.00
2023-07-10T01:44:41.051Z,0.00
2023-07-10T01:45:40.990Z,0.00
2023-07-10T01:46:40.977Z,0.00
2023-07-10T01:47:41.066Z,0.00
2023-07-10T01:48:41.001Z,0.00
2023-07-10T01:49:40.956Z,0.00
2023-07-10T01:50:40.883Z,0.00
2023-07-10T01:51:40.828Z,0.00
2023-07-10T01:52:40.813Z,0.00
2023-07-10T01:53:40.787Z,0.00
2023-07-10T01:54:40.769Z,0.00
2023-07-10T01:55:40.795Z,0.00
2023-07-10T01:56:40.726Z,0.00
2023-07-10T01:57:40.683Z,0.00
2023-07-10T01:58:40.658Z,0.00
2023-07-10T01:59:40.627Z,0.00
2023-07-10T02:00:40.601Z,0.00
2023-07-10T02:01:42.565Z,0.00
2023-07-10T02:02:40.642Z,0.00
2023-07-10T02:03:40.571Z,0.00
2023-07-10T02:04:40.518Z,0.00
2023-07-10T02:05:40.469Z,0.00
2023-07-10T02:06:40.442Z,0.00
2023-07-10T02:07:40.489Z,0.00
2023-07-10T02:08:40.475Z,0.00
2023-07-10T02:09:40.378Z,0.00
2023-07-10T02:10:45.162Z,0.00
2023-07-10T02:11:40.313Z,0.00
2023-07-10T02:12:40.285Z,0.00
2023-07-10T02:13:40.397Z,0.00
2023-07-10T02:14:40.228Z,0.00
2023-07-10T02:15:40.283Z,0.00
2023-07-10T02:16:40.268Z,0.00
2023-07-10T02:17:40.266Z,0.00
2023-07-10T02:18:40.129Z,0.00
2023-07-10T02:19:40.157Z,4.00
2023-07-10T02:20:40.074Z,4.00
2023-07-10T02:21:40.054Z,4.00
2023-07-10T02:22:40.035Z,4.00
2023-07-10T02:23:40.003Z,4.00
2023-07-10T02:24:40.029Z,4.00
2023-07-10T02:25:39.936Z,8.00
2023-07-10T02:26:39.921Z,4.00
2023-07-10T02:27:39.906Z,8.00
2023-07-10T02:28:39.865Z,8.00
2023-07-10T02:29:39.895Z,12.00
2023-07-10T02:30:39.821Z,12.00
2023-07-10T02:31:39.819Z,12.00
2023-07-10T02:32:39.838Z,16.00
2023-07-10T02:33:39.742Z,16.00
2023-07-10T02:34:39.710Z,20.00
2023-07-10T02:35:39.696Z,20.00
2023-07-10T02:36:39.653Z,20.00
2023-07-10T02:37:39.698Z,24.00
2023-07-10T02:38:39.608Z,28.00
2023-07-10T02:39:39.579Z,32.00
2023-07-10T02:40:39.549Z,32.00
2023-07-10T02:41:39.527Z,32.00
2023-07-10T02:42:39.545Z,36.00
2023-07-10T02:43:39.487Z,40.00
2023-07-10T02:44:39.473Z,40.00
2023-07-10T02:45:39.454Z,44.00
2023-07-10T02:46:39.989Z,48.00
2023-07-10T02:47:39.418Z,48.00
2023-07-10T02:48:39.402Z,56.00
2023-07-10T02:49:39.306Z,60.00
2023-07-10T02:50:39.343Z,64.00
2023-07-10T02:51:39.257Z,76.00
2023-07-10T02:52:39.249Z,88.00
2023-07-10T02:53:39.210Z,96.00
2023-07-10T02:54:39.233Z,104.00
2023-07-10T02:55:39.184Z,116.00
2023-07-10T02:56:39.126Z,128.00
2023-07-10T02:57:39.123Z,140.00
2023-07-10T02:58:39.095Z,152.00
2023-07-10T02:59:39.060Z,168.00
2023-07-10T03:00:39.089Z,188.00
2023-07-10T03:01:39.006Z,208.00
2023-07-10T03:02:39.051Z,228.00
2023-07-10T03:03:38.941Z,256.00
2023-07-10T03:04:39.856Z,284.00
2023-07-10T03:05:38.893Z,316.00
2023-07-10T03:06:38.926Z,348.00
2023-07-10T03:07:38.856Z,384.00
2023-07-10T03:08:38.832Z,416.00
2023-07-10T03:09:38.791Z,448.00
2023-07-10T03:10:38.776Z,476.00
2023-07-10T03:11:38.732Z,496.00
2023-07-10T03:12:38.765Z,500.00
2023-07-10T03:13:38.712Z,504.00
2023-07-10T03:14:38.671Z,500.00
2023-07-10T03:15:38.636Z,492.00
2023-07-10T03:16:38.634Z,480.00
2023-07-10T03:17:38.629Z,472.00
2023-07-10T03:18:38.600Z,460.00
2023-07-10T03:19:38.516Z,460.00
2023-07-10T03:20:38.487Z,472.00
2023-07-10T03:21:38.506Z,480.00
2023-07-10T03:22:38.455Z,500.00
2023-07-10T03:23:38.476Z,504.00
2023-07-10T03:24:38.396Z,512.00
2023-07-10T03:25:38.361Z,508.00
2023-07-10T03:26:38.358Z,512.00
2023-07-10T03:27:38.302Z,532.00
2023-07-10T03:28:38.324Z,560.00
2023-07-10T03:29:38.318Z,600.00
2023-07-10T03:30:38.250Z,648.00
2023-07-10T03:31:38.377Z,692.00
2023-07-10T03:32:38.297Z,724.00
2023-07-10T03:33:38.160Z,752.00
2023-07-10T03:34:38.752Z,772.00
2023-07-10T03:35:38.153Z,800.00
2023-07-10T03:36:38.076Z,824.00
2023-07-10T03:37:38.054Z,852.00
2023-07-10T03:38:38.020Z,884.00
2023-07-10T03:39:37.982Z,892.00
2023-07-10T03:40:37.960Z,880.00
2023-07-10T03:41:37.991Z,848.00
2023-07-10T03:42:37.909Z,804.00
2023-07-10T03:43:37.885Z,772.00
2023-07-10T03:44:37.888Z,756.00
2023-07-10T03:45:37.860Z,776.00
2023-07-10T03:46:37.906Z,820.00
2023-07-10T03:47:37.904Z,872.00
2023-07-10T03:48:37.748Z,924.00
2023-07-10T03:49:37.733Z,964.00
2023-07-10T03:50:37.689Z,1000.00
2023-07-10T03:51:37.827Z,1048.00
2023-07-10T03:52:37.674Z,1104.00
2023-07-10T03:53:37.707Z,1180.00
2023-07-10T03:54:37.607Z,1296.00
2023-07-10T03:55:37.566Z,1424.00
2023-07-10T03:56:37.555Z,1548.00
2023-07-10T03:57:37.565Z,1688.00
2023-07-10T03:58:37.612Z,1824.00
2023-07-10T03:59:37.464Z,1968.00
2023-07-10T04:00:37.574Z,2172.00
2023-07-10T04:01:37.431Z,2404.00
2023-07-10T04:02:37.482Z,2592.00
2023-07-10T04:03:37.643Z,2744.00
2023-07-10T04:04:37.396Z,2920.00
2023-07-10T04:05:37.329Z,3136.00
2023-07-10T04:06:37.354Z,3332.00
2023-07-10T04:07:37.267Z,3488.00
2023-07-10T04:08:46.476Z,3648.00
2023-07-10T04:09:37.954Z,3852.00
2023-07-10T04:10:37.157Z,4080.00
2023-07-10T04:11:37.145Z,4320.00
2023-07-10T04:12:37.107Z,4568.00
2023-07-10T04:13:37.150Z,4760.00
2023-07-10T04:14:37.064Z,4880.00
2023-07-10T04:15:37.088Z,4988.00
2023-07-10T04:16:37.062Z,5096.00
2023-07-10T04:17:37.027Z,5232.00
2023-07-10T04:18:36.982Z,5428.00
2023-07-10T04:19:36.930Z,5676.00
2023-07-10T04:20:36.959Z,5996.00
2023-07-10T04:21:37.065Z,6356.00
2023-07-10T04:22:36.882Z,6708.00
2023-07-10T04:23:36.851Z,7088.00
2023-07-10T04:24:37.142Z,7408.00
2023-07-10T04:25:36.827Z,7720.00
2023-07-10T04:26:36.786Z,8060.00
2023-07-10T04:27:36.807Z,8460.00
2023-07-10T04:28:36.724Z,8648.00
2023-07-10T04:29:36.769Z,8464.00
2023-07-10T04:30:36.690Z,7896.00
2023-07-10T04:31:36.625Z,7100.00
2023-07-10T04:32:36.654Z,6420.00
2023-07-10T04:33:36.642Z,5812.00
2023-07-10T04:34:36.558Z,5332.00
2023-07-10T04:35:36.523Z,5000.00
2023-07-10T04:36:36.537Z,4740.00
2023-07-10T04:37:36.483Z,4456.00
2023-07-10T04:38:36.456Z,4196.00
2023-07-10T04:39:36.481Z,3888.00
2023-07-10T04:40:36.401Z,3576.00
2023-07-10T04:41:36.970Z,3296.00
2023-07-10T04:42:36.352Z,3048.00
2023-07-10T04:43:36.321Z,2892.00
2023-07-10T04:44:36.300Z,2660.00
2023-07-10T04:45:36.339Z,2264.00
2023-07-10T04:46:36.282Z,1828.00
2023-07-10T04:47:36.331Z,1424.00
2023-07-10T04:48:36.310Z,1104.00
2023-07-10T04:49:36.187Z,908.00
2023-07-10T04:50:36.164Z,868.00
2023-07-10T04:51:36.293Z,948.00
2023-07-10T04:52:36.110Z,1072.00
2023-07-10T04:53:36.100Z,1136.00
2023-07-10T04:54:36.055Z,1160.00
2023-07-10T04:55:36.041Z,1140.00
2023-07-10T04:56:36.081Z,1048.00
2023-07-10T04:57:35.995Z,892.00
2023-07-10T04:58:35.954Z,732.00
2023-07-10T04:59:35.940Z,592.00
2023-07-10T05:00:35.916Z,480.00
2023-07-10T05:01:36.151Z,408.00
2023-07-10T05:02:35.968Z,380.00
2023-07-10T05:03:35.836Z,384.00
2023-07-10T05:04:35.820Z,412.00
2023-07-10T05:05:35.791Z,428.00
2023-07-10T05:06:35.766Z,412.00
2023-07-10T05:07:35.794Z,364.00
2023-07-10T05:08:35.714Z,308.00
2023-07-10T05:09:35.716Z,256.00
2023-07-10T05:10:35.660Z,228.00
2023-07-10T05:11:35.652Z,216.00
2023-07-10T05:12:35.612Z,216.00
2023-07-10T05:13:35.680Z,224.00
2023-07-10T05:14:35.559Z,244.00
2023-07-10T05:15:35.540Z,256.00
2023-07-10T05:16:35.592Z,260.00
2023-07-10T05:17:35.539Z,280.00
2023-07-10T05:18:35.528Z,288.00
2023-07-10T05:19:35.441Z,312.00
2023-07-10T05:20:35.409Z,324.00
2023-07-10T05:21:35.374Z,336.00
2023-07-10T05:22:35.353Z,348.00
2023-07-10T05:23:35.329Z,380.00
2023-07-10T05:24:35.362Z,392.00
2023-07-10T05:25:35.264Z,408.00
2023-07-10T05:26:35.252Z,416.00
2023-07-10T05:27:35.218Z,428.00
2023-07-10T05:28:35.190Z,440.00
2023-07-10T05:29:35.159Z,452.00
2023-07-10T05:30:35.190Z,468.00
2023-07-10T05:31:35.175Z,500.00
2023-07-10T05:32:35.121Z,540.00
2023-07-10T05:33:35.053Z,576.00
2023-07-10T05:34:35.028Z,616.00
2023-07-10T05:35:34.990Z,656.00
2023-07-10T05:36:35.028Z,712.00
2023-07-10T05:37:34.942Z,784.00
2023-07-10T05:38:34.925Z,864.00
2023-07-10T05:39:34.876Z,948.00
2023-07-10T05:40:34.849Z,1032.00
2023-07-10T05:41:34.859Z,1084.00
2023-07-10T05:42:34.901Z,1140.00
2023-07-10T05:43:34.804Z,1204.00
2023-07-10T05:44:34.752Z,1276.00
2023-07-10T05:45:34.759Z,1348.00
2023-07-10T05:46:34.781Z,1408.00
2023-07-10T05:47:34.702Z,1420.00
2023-07-10T05:48:34.676Z,1412.00
2023-07-10T05:49:34.598Z,1436.00
2023-07-10T05:50:34.565Z,1524.00
2023-07-10T05:51:34.543Z,1676.00
2023-07-10T05:52:34.506Z,1860.00
2023-07-10T05:53:34.544Z,2104.00
2023-07-10T05:54:34.465Z,2388.00
2023-07-10T05:55:34.456Z,2672.00
2023-07-10T05:56:34.401Z,2988.00
2023-07-10T05:57:34.364Z,3356.00
2023-07-10T05:58:34.345Z,3672.00
2023-07-10T05:59:34.363Z,4052.00
2023-07-10T06:00:34.282Z,4352.00
2023-07-10T06:01:34.270Z,4620.00
2023-07-10T06:02:34.282Z,4852.00
2023-07-10T06:03:34.330Z,5012.00
2023-07-10T06:04:34.171Z,5128.00
2023-07-10T06:05:34.189Z,5196.00
2023-07-10T06:06:34.115Z,5240.00
2023-07-10T06:07:34.884Z,5292.00
2023-07-10T06:08:34.062Z,5400.00
2023-07-10T06:09:34.492Z,5524.00
2023-07-10T06:10:34.130Z,5700.00
2023-07-10T06:11:34.299Z,5880.00
2023-07-10T06:12:33.956Z,6196.00
2023-07-10T06:13:33.994Z,6636.00
2023-07-10T06:14:33.907Z,7100.00
2023-07-10T06:15:33.917Z,7584.00
2023-07-10T06:16:33.899Z,8036.00
2023-07-10T06:17:33.915Z,8388.00
2023-07-10T06:18:33.771Z,8712.00
2023-07-10T06:19:33.750Z,9020.00
2023-07-10T06:20:33.724Z,9244.00
2023-07-10T06:21:33.722Z,9464.00
2023-07-10T06:22:33.702Z,9644.00
2023-07-10T06:23:33.705Z,9840.00
2023-07-10T06:24:33.611Z,10052.00
2023-07-10T06:25:33.608Z,10292.00
2023-07-10T06:26:33.564Z,10628.00
2023-07-10T06:27:33.538Z,11004.00
2023-07-10T06:28:33.630Z,11388.00
2023-07-10T06:29:33.556Z,11708.00
2023-07-10T06:30:33.461Z,12060.00
2023-07-10T06:31:33.461Z,12396.00
2023-07-10T06:32:33.397Z,12664.00
2023-07-10T06:33:33.386Z,12828.00
2023-07-10T06:34:33.345Z,12888.00
2023-07-10T06:35:33.389Z,12908.00
2023-07-10T06:36:33.296Z,12876.00
2023-07-10T06:37:33.295Z,12896.00
2023-07-10T06:38:33.344Z,13004.00
2023-07-10T06:39:33.228Z,13148.00
2023-07-10T06:40:33.219Z,13256.00
2023-07-10T06:41:33.244Z,13356.00
2023-07-10T06:42:33.141Z,13480.00
2023-07-10T06:43:33.136Z,13568.00
2023-07-10T06:44:33.090Z,13484.00
2023-07-10T06:45:33.209Z,13124.00
2023-07-10T06:46:33.131Z,12668.00
2023-07-10T06:47:33.163Z,12284.00
2023-07-10T06:48:33.011Z,11956.00
2023-07-10T06:49:32.975Z,11724.00
2023-07-10T06:50:32.936Z,11500.00
2023-07-10T06:51:32.917Z,11252.00
2023-07-10T06:52:32.896Z,11100.00
2023-07-10T06:53:32.922Z,11028.00
2023-07-10T06:54:32.839Z,11056.00
2023-07-10T06:55:32.820Z,11176.00
2023-07-10T06:56:32.799Z,11176.00
2023-07-10T06:57:32.768Z,11012.00
2023-07-10T06:58:32.832Z,10832.00
2023-07-10T06:59:32.713Z,10824.00
2023-07-10T07:00:32.742Z,10924.00
2023-07-10T07:01:32.751Z,10964.00
2023-07-10T07:02:32.710Z,10772.00
2023-07-10T07:03:32.665Z,10424.00
2023-07-10T07:04:32.668Z,9968.00
2023-07-10T07:05:32.570Z,9560.00
2023-07-10T07:06:32.546Z,9300.00
2023-07-10T07:07:32.529Z,8820.00
2023-07-10T07:08:32.498Z,8656.00
2023-07-10T07:09:32.505Z,8804.00
2023-07-10T07:10:32.500Z,9092.00
2023-07-10T07:11:32.426Z,9608.00
2023-07-10T07:12:32.401Z,9720.00
2023-07-10T07:13:32.394Z,9676.00
2023-07-10T07:14:32.366Z,9580.00
2023-07-10T07:15:32.340Z,9512.00
2023-07-10T07:16:32.404Z,9552.00
2023-07-10T07:17:32.338Z,9524.00
2023-07-10T07:18:32.260Z,9492.00
2023-07-10T07:19:32.241Z,9448.00
2023-07-10T07:20:32.247Z,9376.00
2023-07-10T07:21:32.221Z,9336.00
2023-07-10T07:22:32.207Z,9328.00
2023-07-10T07:23:32.154Z,9336.00
2023-07-10T07:24:32.104Z,9348.00
2023-07-10T07:25:32.132Z,9412.00
2023-07-10T07:26:32.058Z,9512.00
2023-07-10T07:27:32.034Z,9716.00
2023-07-10T07:28:32.093Z,10208.00
2023-07-10T07:29:31.971Z,10412.00
2023-07-10T07:30:31.993Z,10280.00
2023-07-10T07:31:32.117Z,10144.00
2023-07-10T07:32:31.947Z,10096.00
2023-07-10T07:33:31.872Z,10172.00
2023-07-10T07:34:31.887Z,10224.00
2023-07-10T07:35:31.843Z,10320.00
2023-07-10T07:36:31.913Z,10424.00
2023-07-10T07:37:31.781Z,10580.00
2023-07-10T07:38:31.743Z,10716.00
2023-07-10T07:39:31.712Z,10864.00
2023-07-10T07:40:31.719Z,11000.00
2023-07-10T07:41:32.754Z,11164.00
2023-07-10T07:42:31.647Z,11284.00
2023-07-10T07:43:31.640Z,11396.00
2023-07-10T07:44:31.605Z,11504.00
2023-07-10T07:45:31.567Z,11624.00
2023-07-10T07:46:31.567Z,11784.00
2023-07-10T07:47:31.666Z,11936.00
2023-07-10T07:48:31.533Z,12080.00
2023-07-10T07:49:31.464Z,12212.00
2023-07-10T07:50:31.444Z,12248.00
2023-07-10T07:51:31.422Z,12284.00
2023-07-10T07:52:31.398Z,12300.00
2023-07-10T07:53:31.421Z,12300.00
2023-07-10T07:54:31.349Z,12312.00
2023-07-10T07:55:31.320Z,12348.00
2023-07-10T07:56:31.288Z,12396.00
2023-07-10T07:57:31.926Z,12436.00
2023-07-10T07:58:31.291Z,12452.00
2023-07-10T07:59:31.265Z,12460.00
2023-07-10T08:00:31.200Z,12460.00
2023-07-10T08:01:31.164Z,12436.00
2023-07-10T08:02:31.194Z,12376.00
2023-07-10T08:03:31.343Z,12284.00
2023-07-10T08:04:31.214Z,12176.00
2023-07-10T08:05:35.857Z,12068.00
2023-07-10T08:06:31.047Z,11976.00
2023-07-10T08:07:31.023Z,11924.00
2023-07-10T08:08:31.000Z,11916.00
2023-07-10T08:09:31.034Z,11892.00
2023-07-10T08:10:30.948Z,11880.00
2023-07-10T08:11:30.935Z,11884.00
2023-07-10T08:12:30.900Z,11880.00
2023-07-10T08:13:30.921Z,11876.00
2023-07-10T08:14:30.851Z,11892.00
2023-07-10T08:15:31.546Z,11868.00
2023-07-10T08:16:30.823Z,11832.00
2023-07-10T08:17:30.812Z,11784.00
2023-07-10T08:18:30.756Z,11756.00
2023-07-10T08:19:30.724Z,11716.00
2023-07-10T08:20:30.709Z,11668.00
2023-07-10T08:21:30.747Z,11600.00
2023-07-10T08:22:30.674Z,11536.00
2023-07-10T08:23:30.638Z,11472.00
2023-07-10T08:24:30.617Z,11420.00
2023-07-10T08:25:30.586Z,11364.00
2023-07-10T08:26:30.564Z,11332.00
2023-07-10T08:27:30.586Z,11276.00
2023-07-10T08:28:30.528Z,11232.00
2023-07-10T08:29:30.494Z,11204.00
2023-07-10T08:30:30.515Z,11200.00
2023-07-10T08:31:30.468Z,11236.00
2023-07-10T08:32:30.521Z,11292.00
2023-07-10T08:33:30.453Z,11372.00
2023-07-10T08:34:30.396Z,11436.00
2023-07-10T08:35:30.358Z,11512.00
2023-07-10T08:36:30.333Z,11592.00
2023-07-10T08:37:30.311Z,11644.00
2023-07-10T08:38:30.290Z,11708.00
2023-07-10T08:39:30.318Z,11768.00
2023-07-10T08:40:30.254Z,11828.00
2023-07-10T08:41:30.221Z,11880.00
2023-07-10T08:42:30.210Z,11928.00
2023-07-10T08:43:30.184Z,11968.00
2023-07-10T08:44:30.165Z,11976.00
2023-07-10T08:45:30.610Z,11972.00
2023-07-10T08:46:30.141Z,11976.00
2023-07-10T08:47:30.241Z,12008.00
2023-07-10T08:48:30.056Z,12048.00
2023-07-10T08:49:30.070Z,12044.00
2023-07-10T08:50:30.018Z,12044.00
2023-07-10T08:51:30.045Z,12036.00
2023-07-10T08:52:29.984Z,12024.00
2023-07-10T08:53:29.948Z,12016.00
2023-07-10T08:54:29.918Z,12024.00
2023-07-10T08:55:29.961Z,12072.00
2023-07-10T08:56:29.881Z,12268.00
2023-07-10T08:57:29.915Z,12732.00
2023-07-10T08:58:29.845Z,13120.00
2023-07-10T08:59:29.804Z,13516.00
2023-07-10T09:00:29.793Z,13776.00
2023-07-10T09:01:29.876Z,13984.00
2023-07-10T09:02:29.757Z,14396.00
2023-07-10T09:03:29.788Z,14712.00
2023-07-10T09:04:29.745Z,14740.00
2023-07-10T09:05:29.705Z,14520.00
2023-07-10T09:06:29.649Z,14328.00
2023-07-10T09:07:29.776Z,14240.00
2023-07-10T09:08:29.900Z,14176.00
2023-07-10T09:09:29.628Z,14144.00
2023-07-10T09:10:29.558Z,14180.00
2023-07-10T09:11:29.531Z,14100.00
2023-07-10T09:12:29.513Z,13716.00
2023-07-10T09:13:29.516Z,13992.00
2023-07-10T09:14:29.472Z,13852.00
2023-07-10T09:15:29.506Z,13580.00
2023-07-10T09:16:29.436Z,12464.00
2023-07-10T09:17:29.509Z,11644.00
2023-07-10T09:18:29.392Z,11108.00
2023-07-10T09:19:29.370Z,11048.00
2023-07-10T09:20:29.389Z,11156.00
2023-07-10T09:21:29.373Z,11356.00
2023-07-10T09:22:29.290Z,12752.00
2023-07-10T09:23:29.270Z,14224.00
2023-07-10T09:24:29.262Z,15840.00
2023-07-10T09:25:29.257Z,16728.00
2023-07-10T09:26:29.274Z,16860.00
2023-07-10T09:27:29.224Z,16836.00
2023-07-10T09:28:29.181Z,16824.00
2023-07-10T09:29:29.172Z,17056.00
2023-07-10T09:30:29.133Z,16772.00
2023-07-10T09:31:30.386Z,16668.00
2023-07-10T09:32:29.121Z,16220.00
2023-07-10T09:33:29.070Z,15548.00
2023-07-10T09:34:29.056Z,14840.00
2023-07-10T09:35:29.024Z,14564.00
2023-07-10T09:36:29.136Z,14084.00
2023-07-10T09:37:29.269Z,14188.00
2023-07-10T09:38:29.142Z,14276.00
2023-07-10T09:39:29.163Z,14672.00
2023-07-10T09:40:29.102Z,15136.00
2023-07-10T09:41:29.128Z,14852.00
2023-07-10T09:42:29.084Z,14388.00
2023-07-10T09:43:29.238Z,13832.00
2023-07-10T09:44:29.016Z,13492.00
2023-07-10T09:45:29.037Z,13384.00
2023-07-10T09:46:29.022Z,13204.00
2023-07-10T09:47:28.983Z,13076.00
2023-07-10T09:48:28.923Z,12712.00
2023-07-10T09:49:29.114Z,12644.00
2023-07-10T09:50:28.956Z,12832.00
2023-07-10T09:51:28.953Z,13212.00
2023-07-10T09:52:28.936Z,13268.00
2023-07-10T09:53:28.659Z,12952.00
2023-07-10T09:54:28.699Z,12644.00
2023-07-10T09:55:28.628Z,12512.00
2023-07-10T09:56:28.605Z,12620.00
2023-07-10T09:57:28.589Z,13168.00
2023-07-10T09:58:28.593Z,14380.00
2023-07-10T09:59:28.536Z,15712.00
2023-07-10T10:00:28.586Z,16164.00
2023-07-10T10:01:28.532Z,15304.00
2023-07-10T10:02:28.595Z,14484.00
2023-07-10T10:03:28.475Z,14028.00
2023-07-10T10:04:28.442Z,13660.00
2023-07-10T10:05:28.422Z,12976.00
2023-07-10T10:06:28.488Z,12228.00
2023-07-10T10:07:28.379Z,11824.00
2023-07-10T10:08:28.364Z,11632.00
2023-07-10T10:09:28.354Z,11352.00
2023-07-10T10:10:28.346Z,11048.00
2023-07-10T10:11:28.355Z,11028.00
2023-07-10T10:12:28.281Z,11044.00
2023-07-10T10:13:28.355Z,10840.00
2023-07-10T10:14:28.278Z,10644.00
2023-07-10T10:15:28.362Z,10484.00
2023-07-10T10:16:28.509Z,10320.00
2023-07-10T10:17:28.381Z,10244.00
2023-07-10T10:18:29.445Z,10148.00
2023-07-10T10:19:28.341Z,10104.00
2023-07-10T10:20:28.254Z,10164.00
2023-07-10T10:21:28.102Z,10276.00
2023-07-10T10:22:28.141Z,10372.00
2023-07-10T10:23:28.075Z,10500.00
2023-07-10T10:24:28.048Z,10616.00
2023-07-10T10:25:28.035Z,10728.00
2023-07-10T10:26:28.012Z,10904.00
2023-07-10T10:27:27.982Z,11284.00
2023-07-10T10:28:28.017Z,11948.00
2023-07-10T10:29:27.940Z,12508.00
2023-07-10T10:30:27.930Z,12400.00
2023-07-10T10:31:27.948Z,12756.00
2023-07-10T10:32:27.903Z,13008.00
2023-07-10T10:33:27.961Z,14132.00
2023-07-10T10:34:27.868Z,14748.00
2023-07-10T10:35:27.829Z,14056.00
2023-07-10T10:36:27.827Z,13768.00
2023-07-10T10:37:27.781Z,14220.00
2023-07-10T10:38:27.823Z,15324.00
2023-07-10T10:39:27.741Z,16092.00
2023-07-10T10:40:27.723Z,16320.00
2023-07-10T10:41:27.708Z,17056.00
2023-07-10T10:42:27.687Z,17536.00
2023-07-10T10:43:27.719Z,17568.00
2023-07-10T10:44:27.658Z,17472.00
2023-07-10T10:45:27.659Z,17344.00
2023-07-10T10:46:27.655Z,17056.00
2023-07-10T10:47:27.642Z,16236.00
2023-07-10T10:48:27.558Z,15520.00
2023-07-10T10:49:27.593Z,14760.00
2023-07-10T10:50:27.521Z,13900.00
2023-07-10T10:51:27.502Z,13048.00
2023-07-10T10:52:27.486Z,12344.00
2023-07-10T10:53:27.485Z,11856.00
2023-07-10T10:54:33.519Z,11552.00
2023-07-10T10:55:27.470Z,11336.00
2023-07-10T10:56:27.415Z,11252.00
2023-07-10T10:57:27.388Z,11256.00
2023-07-10T10:58:27.365Z,11208.00
2023-07-10T10:59:27.346Z,11332.00
2023-07-10T11:00:27.325Z,11888.00
2023-07-10T11:01:27.382Z,12892.00
2023-07-10T11:02:27.305Z,13916.00
2023-07-10T11:03:27.308Z,14740.00
2023-07-10T11:04:27.249Z,15452.00
2023-07-10T11:05:27.247Z,16124.00
2023-07-10T11:06:27.305Z,17056.00
2023-07-10T11:07:27.250Z,17664.00
2023-07-10T11:08:28.197Z,17984.00
2023-07-10T11:09:27.140Z,17760.00
2023-07-10T11:10:27.118Z,17376.00
2023-07-10T11:11:27.106Z,17088.00
2023-07-10T11:12:27.092Z,16672.00
2023-07-10T11:13:27.083Z,16260.00
2023-07-10T11:14:27.106Z,16008.00
2023-07-10T11:15:27.078Z,15356.00
2023-07-10T11:16:27.036Z,14992.00
2023-07-10T11:17:27.012Z,15192.00
2023-07-10T11:18:26.965Z,15156.00
2023-07-10T11:19:27.004Z,15136.00
2023-07-10T11:20:26.933Z,15596.00
2023-07-10T11:21:26.909Z,15648.00
2023-07-10T11:22:27.035Z,15784.00
2023-07-10T11:23:26.866Z,15744.00
2023-07-10T11:24:26.846Z,15544.00
2023-07-10T11:25:26.877Z,15696.00
2023-07-10T11:26:26.802Z,16608.00
2023-07-10T11:27:26.783Z,16576.00
2023-07-10T11:28:26.771Z,17056.00
2023-07-10T11:29:26.739Z,17184.00
2023-07-10T11:30:26.724Z,17152.00
2023-07-10T11:31:26.815Z,16664.00
2023-07-10T11:32:26.720Z,16620.00
2023-07-10T11:33:26.669Z,17088.00
2023-07-10T11:34:26.670Z,17408.00
2023-07-10T11:35:26.689Z,16184.00
2023-07-10T11:36:26.621Z,15708.00
2023-07-10T11:37:26.645Z,15112.00
2023-07-10T11:38:26.580Z,14872.00
2023-07-10T11:39:26.548Z,14352.00
2023-07-10T11:40:26.527Z,13856.00
2023-07-10T11:41:26.515Z,13044.00
2023-07-10T11:42:28.135Z,13196.00
2023-07-10T11:43:26.607Z,12760.00
2023-07-10T11:44:26.466Z,11564.00
2023-07-10T11:45:26.443Z,10360.00
2023-07-10T11:46:26.448Z,10072.00
2023-07-10T11:47:26.481Z,10600.00
2023-07-10T11:48:26.431Z,11316.00
2023-07-10T11:49:26.355Z,11124.00
2023-07-10T11:50:26.341Z,10880.00
2023-07-10T11:51:26.324Z,11820.00
2023-07-10T11:52:26.293Z,12984.00
2023-07-10T11:53:26.291Z,12652.00
2023-07-10T11:54:26.325Z,10352.00
2023-07-10T11:55:26.254Z,9468.00
2023-07-10T11:56:26.228Z,9388.00
2023-07-10T11:57:26.197Z,10788.00
2023-07-10T11:58:26.181Z,11832.00
2023-07-10T11:59:26.161Z,11620.00
2023-07-10T12:00:26.189Z,12464.00
2023-07-10T12:01:26.138Z,14544.00
2023-07-10T12:02:26.122Z,16828.00
2023-07-10T12:03:26.144Z,18048.00
2023-07-10T12:04:26.054Z,16736.00
2023-07-10T12:05:26.103Z,16704.00
2023-07-10T12:06:26.021Z,16352.00
2023-07-10T12:07:26.002Z,14320.00
2023-07-10T12:08:25.977Z,14304.00
2023-07-10T12:09:25.965Z,16352.00
2023-07-10T12:10:25.945Z,17248.00
2023-07-10T12:11:25.974Z,18208.00
2023-07-10T12:12:25.896Z,18304.00
2023-07-10T12:13:25.912Z,16476.00
2023-07-10T12:14:25.860Z,15340.00